Weather observations for the past three days for
Farmville
Imperial (Metric)
Date Time (edt) Wind (mph) Vis. (mi.) Weather Sky Cond. Temperature (ºF) Relative Humidity Wind Chill (°F) Heat Index (°F) Pressure Precipitation (in)
Air Dwpt 6 hour altimeter (in) sea level (mb) 1 hr 3 hr 6 hr
Max. Min.
09 05:15 Calm 10.00 Fair CLR 47.5 44.6 90% 29.9 0.0
09 04:55 Calm 10.00 Fair CLR 48.6 44.6 86% 29.9 0.0
09 04:35 Calm 10.00 Fair CLR 49.5 44.6 83% 29.9 0.0
09 04:15 Calm 10.00 Fair CLR 47.5 43.9 87% 29.9 0.0
09 03:55 Calm 10.00 Fair CLR 48 43.5 85% 29.9 0.0
09 03:35 Calm 10.00 Fair CLR 48.7 43.7 83% 29.91 0.0
09 03:15 Calm 10.00 Fair CLR 47.3 43.3 86% 29.91 0.0
09 02:55 Calm 10.00 Fair CLR 46.9 43.7 89% 29.9 0.0
09 02:35 Calm 10.00 Fair CLR 46.4 43.3 89% 29.92 0.0
09 02:15 Calm 10.00 Fair CLR 48.2 43.7 85% 29.93 0.0
09 01:55 Calm 10.00 Fair CLR 47.8 43.3 66.4 46.8 84% 29.93 0.0
09 01:35 Calm 10.00 Fair CLR 50.2 43.3 77% 29.93 0.0
09 01:15 Calm 10.00 Fair CLR 48.4 43.3 83% 29.93 0.0
09 00:55 Calm 10.00 Fair CLR 52.7 43.3 71% 29.92 0.0
09 00:35 Calm 10.00 Fair CLR 53.2 43.7 70% 29.92 0.0
09 00:15 Calm 10.00 Fair CLR 54.1 43.2 67% 29.93 0.0
08 23:55 Calm 10.00 Fair CLR 55 43 64% 29.93 0.0
08 23:35 Calm 10.00 Fair CLR 55.2 43.2 64% 29.93 0.0
08 23:15 Calm 10.00 Fair CLR 57.2 42.8 59% 29.94 0.0
08 22:55 S 3 10.00 Fair CLR 57.4 42.4 58% 29.94 0.0
08 22:35 Calm 10.00 Fair CLR 58.1 42.8 57% 29.94 0.0
08 22:15 Calm 10.00 Fair CLR 58.3 42.3 55% 29.94 0.0
08 21:55 Calm 10.00 Fair CLR 58.6 42.1 54% 29.94 0.0
08 21:35 S 5 10.00 Fair CLR 60.4 41.5 50% 29.93 0.0
08 21:15 S 5 10.00 Fair CLR 61.7 41 47% 29.93 0.0
08 20:55 SW 3 10.00 Fair CLR 62.6 41 45% 29.92 0.0
08 20:35 S 3 10.00 Fair CLR 63.5 41.4 44% 29.93 0.0
08 20:15 SW 3 10.00 Fair CLR 65.5 40.3 40% 29.93 0.0
08 19:55 S 5 10.00 Fair CLR 66.4 40.1 73.6 66.2 38% 29.92 0.0
08 19:35 SW 6 10.00 Fair CLR 68 40.5 37% 29.91 0.0
08 19:15 S 10 10.00 Fair CLR 69.1 40.1 35% 29.91 0.0
08 18:55 S 7 10.00 Fair CLR 70.2 40.5 34% 29.9 0.0
08 18:35 S 13 G 18 10.00 Fair CLR 71.8 40.8 33% 29.9 0.0
08 18:15 S 13 G 17 10.00 Fair CLR 72.7 40.6 31% 29.9 0.0
08 17:55 S 12 10.00 Fair CLR 72.9 40.5 31% 29.9 0.0
08 17:35 S 15 G 18 10.00 Fair CLR 73 40.1 30% 29.91 0.0
08 17:15 SW 10 10.00 Fair CLR 73.2 40.3 30% 29.91 0.0
08 16:55 S 12 G 20 10.00 Fair CLR 73.4 40.5 31% 29.91 0.0
08 16:35 S 7 10.00 Fair CLR 73.2 39.9 30% 29.92 0.0
08 16:15 SW 7 10.00 Fair CLR 72.7 39 30% 29.92 0.0
08 15:55 S 7 10.00 Fair CLR 72.5 39.4 30% 29.93 0.0
08 15:35 SW 3 10.00 Fair CLR 72.1 39 30% 29.93 0.0
08 15:15 S 8 10.00 Fair CLR 72.3 39.2 30% 29.94 0.0
08 14:55 S 7 10.00 Fair CLR 71.6 40.3 32% 29.96 0.0
08 14:35 S 12 10.00 Fair CLR 71.2 40.3 33% 29.96 0.0
08 14:15 S 12 G 17 10.00 Fair CLR 71.1 41.4 34% 29.97 0.0
08 13:55 SW 8 10.00 Fair CLR 70.9 41.4 71.1 45.5 34% 29.98 0.0
08 13:35 S 8 10.00 Fair CLR 69.4 39.9 34% 29.98 0.0
08 13:15 S 7 10.00 Fair CLR 69.3 39 33% 29.99 0.0
08 12:55 W 5 10.00 Fair CLR 68.5 40.3 36% 30.01 0.0
08 12:35 SW 6 10.00 Fair CLR 68 39.6 35% 30.01 0.0
08 12:15 S 6 10.00 Fair CLR 67.5 39 35% 30.03 0.0
08 11:55 SE 5 10.00 Fair CLR 66.4 37.9 35% 30.03 0.0
08 11:35 S 3 10.00 Fair CLR 65.8 38.8 37% 30.04 0.0
08 11:15 Calm 10.00 Fair CLR 65.1 40.1 40% 30.04 0.0
08 10:55 Calm 10.00 Fair CLR 63.5 40.3 43% 30.04 0.0
08 10:35 Calm 10.00 Fair CLR 64.9 42.6 44% 30.04 0.0
08 10:15 Calm 10.00 Fair CLR 62.8 43.2 49% 30.04 0.0
08 09:55 Calm 10.00 Fair CLR 61.7 43.3 51% 30.04 0.0
08 09:35 Calm 10.00 Fair CLR 58.8 45.5 61% 30.04 0.0
08 09:15 Calm 10.00 Fair CLR 54.5 49.8 84% 30.04 0.0
08 08:55 Calm 10.00 Fair CLR 51.4 48.9 91% 30.04 0.0
08 08:35 S 3 10.00 Fair CLR 49.5 48.4 96% 30.04 0.0
08 08:15 Calm 10.00 Fair CLR 47.3 47.1 99% 30.03 0.0
08 07:55 Calm 10.00 Fair CLR 45.1 45.1 46.6 39.6 100% 30.03 0.0
08 07:35 Calm 10.00 Fair CLR 42.8 42.8 100% 30.02 0.0
08 07:15 Calm 10.00 Fair CLR 41 41 100% 30.01 0.0
08 06:55 Calm 3.00 Fog/Mist CLR 40.3 40.3 100% 30 0.0
08 06:35 Calm 3.00 Fog/Mist CLR 41.2 41.2 100% 29.98 0.0
08 06:15 Calm 7.00 Partly Cloudy SCT002 40.5 40.5 100% 29.98 0.0
08 05:55 Calm 2.50 Fog/Mist SCT002 41 41 100% 29.97 0.0
08 05:35 Calm 3.00 Fog/Mist CLR 41.4 41.4 100% 29.97 0.0
08 05:15 Calm 10.00 Fair CLR 42.4 42.4 100% 29.96 0.0
08 04:55 Calm 7.00 Fair CLR 42.1 42.1 100% 29.96 0.0
08 04:35 Calm 5.00 Fog/Mist SCT001 42.6 42.6 100% 29.95 0.0
08 04:15 Calm 1.75 Fog/Mist BKN001 42.4 42.4 100% 29.95 0.0
08 03:55 Calm 0.25 Fog OVC001 44.4 44.4 100% 29.94 0.0
08 03:35 Calm 0.25 Fog OVC001 45.3 45.3 100% 29.94 0.0
08 03:15 Calm 0.25 Fog OVC001 45.7 45.7 100% 29.94 0.0
08 02:55 Calm 0.25 Fog OVC001 45.9 45.9 100% 29.93 0.0
08 02:35 Calm 0.25 Fog OVC001 46.4 46.4 100% 29.93 0.0
08 02:15 Calm 0.25 Fog OVC001 46.6 46.6 100% 29.93 0.0
08 01:55 Calm 0.25 Fog OVC001 46.4 46.4 55.4 45.7 100% 29.93 0.0
08 01:35 Calm 0.25 Fog OVC001 46.4 46.4 100% 29.92 0.0
08 01:15 Calm 0.15 Fog OVC001 46.8 46.8 100% 29.92 0.0
08 00:55 SW 3 0.50 Fog OVC001 46.9 46.9 100% 29.92 0.0
08 00:35 SW 3 0.15 Fog OVC003 48.7 48.7 100% 29.91 0.0
08 00:15 Calm 0.25 Fog OVC003 48.2 48.2 100% 29.91 0.0
07 23:55 Calm 0.50 Fog OVC003 46.6 46.6 100% 29.91 0.0
07 23:35 Calm 0.25 Fog OVC003 48 48 100% 29.91 0.0
07 23:15 Calm 0.25 Fog OVC005 48.4 48.4 100% 29.9 0.0
07 22:55 Calm 0.75 Fog/Mist BKN005 49.3 49.3 100% 29.9 0.0
07 22:35 Calm 1.75 Fog/Mist SCT005 49.8 49.8 100% 29.89 0.0
07 22:15 Calm 4.00 Fog/Mist CLR 50.9 50.9 100% 29.88 0.0
07 21:55 Calm 4.00 Fog/Mist CLR 51.3 51.3 100% 29.88 0.0
07 21:35 Calm 5.00 Fog/Mist CLR 51.8 51.8 100% 29.86 0.0
07 21:15 Calm 5.00 Fog/Mist SCT110 52 52 100% 29.86 0.0
07 20:55 Calm 7.00 Mostly Cloudy BKN110 52.9 52.9 100% 29.86 0.0
07 20:35 Calm 7.00 Mostly Cloudy BKN110 53.6 53.6 100% 29.86 0.0
07 20:15 Calm 7.00 Mostly Cloudy BKN100 54.1 54 99% 29.86 0.0
07 19:55 Calm 10.00 Overcast OVC100 55.4 54.5 59.2 54.1 97% 29.85 0.0 0.11
07 19:35 S 5 10.00 Overcast SCT028 OVC110 56.8 53.2 88% 29.84 0.0
07 19:15 Calm 10.00 Overcast BKN015 BKN028 OVC100 56.7 55.4 96% 29.84 0.0
07 18:55 Calm 10.00 Overcast BKN017 OVC030 56.7 54 91% 29.83 0.0
07 18:35 Calm 10.00 Overcast SCT017 OVC030 56.7 54 91% 29.83 0.0
07 18:15 Calm 10.00 Overcast BKN015 OVC080 57.4 53.2 86% 29.83 0.0
07 17:55 Calm 10.00 Overcast BKN015 OVC090 57 53.1 87% 29.83 0.0
07 17:35 Calm 10.00 Overcast SCT017 SCT044 OVC090 57.6 53.1 85% 29.83 0.0
07 17:15 Calm 10.00 Light Rain SCT015 BKN065 OVC075 56.8 52.9 87% 29.83 0.0
07 16:35 Calm 10.00 Overcast SCT046 OVC065 56.1 52.7 88% 29.83 0.0 0.05
07 16:15 Calm 3.00 Light Rain SCT039 SCT046 OVC055 54.7 53.1 94% 29.83 0.0 0.05
07 15:55 Calm 10.00 Light Rain SCT043 BKN055 OVC070 54.7 52.7 93% 29.85 0.0 0.06
07 15:35 Calm 3.00 Light Rain SCT043 BKN049 OVC055 55.2 51.1 86% 29.85 0.0 0.05
07 15:15 E 3 10.00 Light Rain SCT038 BKN044 OVC050 57.2 50 77% 29.86 0.0
07 14:55 NE 5 10.00 Light Rain SCT032 OVC040 58.3 47.8 68% 29.86 0.0
07 14:35 NE 6 10.00 Overcast OVC037 58.3 46.9 66% 29.86 0.0
07 14:15 NE 7 10.00 Overcast OVC035 58.3 47.8 68% 29.85 0.0
07 13:55 NE 9 10.00 Overcast SCT030 OVC035 58.3 49.3 59 56.3 72% 29.85 0.0
07 13:35 NE 9 10.00 Overcast OVC028 58.6 49.5 72% 29.86 0.0
07 13:15 NE 10 G 16 10.00 Overcast OVC026 57.7 50 76% 29.86 0.0
07 12:55 NE 10 10.00 Overcast OVC026 56.5 49.6 78% 29.87 0.0
07 12:35 N 10 G 16 10.00 Overcast BKN026 OVC033 56.7 49.8 78% 29.88 0.0
07 12:15 NE 10 10.00 Overcast SCT021 SCT028 OVC033 56.7 50.5 80% 29.88 0.0
07 11:55 NE 8 G 21 10.00 Overcast BKN015 OVC021 56.8 50.5 80% 29.88 0.0
07 11:35 N 9 10.00 Overcast BKN015 OVC030 57.9 54.3 88% 29.88 0.0
07 11:15 NE 10 10.00 Overcast OVC030 56.8 53.4 88% 29.87 0.0
07 10:55 N 12 10.00 Overcast OVC028 56.5 52.9 88% 29.87 0.0
07 10:35 N 7 10.00 Overcast OVC026 56.7 52.9 87% 29.88 0.0
07 10:15 N 7 10.00 Light Rain OVC026 57.9 52.9 83% 29.87 0.0
07 09:55 NE 7 10.00 Overcast OVC026 58.3 52.9 82% 29.88 0.0
07 09:35 NE 10 10.00 Overcast OVC026 58.3 52.9 82% 29.88 0.0
07 09:15 N 9 10.00 Overcast OVC026 58.1 53.4 85% 29.88 0.0
07 08:55 NE 9 10.00 Overcast OVC024 58.5 54.5 87% 29.86 0.0
07 08:35 NE 8 10.00 Overcast OVC022 58.1 54.9 89% 29.86 0.0
07 08:15 NE 7 10.00 Overcast OVC020 57.2 54.9 92% 29.87 0.0
07 07:55 NE 6 10.00 Light Drizzle SCT008 SCT013 OVC018 57.4 56.1 67.5 57.4 96% 29.87 0.0 0.04
07 07:35 NE 6 10.00 Light Rain OVC008 57.9 56.7 96% 29.87 0.0
07 07:15 NE 10 G 16 10.00 Light Rain OVC006 58.3 56.7 94% 29.86 0.0
07 06:55 NE 10 10.00 Light Drizzle OVC004 60.4 59.4 96% 29.84 0.0
07 06:35 N 13 G 17 10.00 Overcast OVC004 62.8 62.6 99% 29.83 0.0
07 06:15 N 9 10.00 Overcast BKN006 BKN010 OVC070 64.6 64.6 100% 29.82 0.0
07 05:55 NE 5 1.25 Fog/Mist SCT003 BKN075 OVC095 64.2 64.2 100% 29.81 0.0
07 05:35 Calm 7.00 Overcast SCT075 OVC095 65.1 65.1 100% 29.82 0.0
07 05:15 Calm 7.00 Overcast SCT010 SCT022 OVC095 65.3 65.3 100% 29.81 0.0
07 04:55 Calm 10.00 Light Rain BKN010 OVC019 65.8 65.5 99% 29.81 0.0 0.02 0.04
07 04:35 Calm 7.00 Light Rain OVC010 65.8 65.8 100% 29.82 0.0 0.01
07 04:15 Calm 10.00 Light Drizzle OVC010 66 66 100% 29.82 0.0
07 03:55 Calm 10.00 Rain OVC010 66.2 66.2 100% 29.81 0.0
07 03:35 Calm 7.00 Overcast BKN010 OVC110 66.2 66.2 100% 29.81 0.0
07 03:15 Calm 10.00 Overcast OVC110 66.6 66.2 99% 29.79 0.0
07 02:55 SW 3 10.00 Overcast OVC100 66.7 66.4 99% 29.8 0.0 0.02
07 02:35 S 8 10.00 Light Rain BKN100 OVC120 66.7 66.2 98% 29.8 0.0 0.02
07 02:15 SW 7 10.00 Light Rain OVC110 67.1 66.7 99% 29.81 0.0 0.01
07 01:55 SW 7 10.00 Light Rain SCT090 OVC120 67.6 66.4 71.1 67.6 96% 29.81 0.0
07 01:35 SW 3 10.00 Light Rain SCT075 OVC090 68.4 66.2 93% 29.81 0.0
07 01:15 S 7 10.00 Mostly Cloudy BKN080 BKN100 BKN120 68.4 66.2 93% 29.8 0.0
07 00:55 SW 3 10.00 Partly Cloudy SCT110 68.7 66.4 92% 29.81 0.0
07 00:35 SW 6 10.00 Mostly Cloudy BKN110 68.9 66.6 92% 29.84 0.0
07 00:15 SW 7 10.00 Light Rain OVC110 69.6 66.4 90% 29.84 0.0
06 23:55 SW 7 10.00 Light Rain BKN110 70.3 65.7 85% 29.85 0.0
06 23:35 S 9 10.00 Mostly Cloudy BKN120 69.8 65.3 86% 29.82 0.0
06 23:15 SW 5 10.00 Partly Cloudy SCT120 70.2 65.3 85% 29.85 0.0
06 22:55 SW 6 10.00 Partly Cloudy SCT120 70.2 65.3 85% 29.82 0.0
06 22:35 S 8 10.00 Fair CLR 69.4 65.5 87% 29.81 0.0
06 22:15 SW 7 10.00 Fair CLR 69.8 65.5 86% 29.82 0.0
06 21:55 S 5 10.00 Fair CLR 68.7 65.7 90% 29.83 0.0
06 21:35 S 5 10.00 Fair CLR 68.9 65.7 89% 29.84 0.0
06 21:15 SW 3 10.00 Fair CLR 69.4 65.7 88% 29.83 0.0
06 20:55 SW 5 10.00 Fair CLR 69.8 65.7 87% 29.83 0.0
06 20:35 SW 6 10.00 Fair CLR 69.8 65.5 86% 29.82 0.0
06 20:15 SW 6 10.00 Fair CLR 70.3 65.5 85% 29.82 0.0
06 19:55 S 7 10.00 Fair CLR 71.1 65.3 73.6 67.6 82% 29.82 0.0
06 19:35 SW 5 10.00 Fair CLR 71.6 65.3 81% 29.83 0.0
06 19:15 SW 8 10.00 Fair CLR 71.6 65.1 80% 29.82 0.0
06 18:55 SW 9 10.00 Fair CLR 72.1 64.8 78% 29.82 0.0
06 18:35 S 13 G 17 10.00 Fair CLR 73.4 64.9 75% 29.81 0.0
06 18:15 SW 8 G 16 10.00 Fair CLR 72.5 64.4 76% 29.82 0.0
06 17:55 SW 7 10.00 Fair CLR 72.7 64 74% 29.82 0.0
06 17:35 SW 10 G 22 10.00 Partly Cloudy SCT028 72.5 63.9 74% 29.81 0.0
06 17:15 SW 10 G 20 10.00 Partly Cloudy SCT028 73.4 64.2 73% 29.81 0.0
06 16:55 SW 9 G 18 10.00 Fair CLR 73 64.2 74% 29.82 0.0
06 16:35 SW 15 G 21 10.00 Partly Cloudy SCT025 72.5 63.9 74% 29.82 0.0
06 16:15 SW 7 10.00 Partly Cloudy SCT025 72.1 64.2 76% 29.82 0.0
06 15:55 SW 14 G 18 10.00 Fair CLR 71.2 63.9 78% 29.82 0.0
06 15:35 SW 8 G 17 10.00 Partly Cloudy SCT022 SCT090 71.1 64.2 79% 29.82 0.0
06 15:15 SW 16 G 25 10.00 Partly Cloudy SCT021 SCT100 SCT120 70.7 64.2 80% 29.79 0.0
06 14:55 S 15 G 22 10.00 Fair CLR 70.3 63.7 80% 29.81 0.0
06 14:35 SW 12 G 21 10.00 Fair CLR 69.8 63.3 80% 29.82 0.0
06 14:15 S 21 G 28 10.00 Mostly Cloudy and Breezy SCT030 SCT042 BKN090 68.4 63.3 84% 29.84 0.0
06 13:55 S 14 G 23 10.00 Light Drizzle SCT029 SCT045 BKN100 67.6 63.3 68 62.2 86% 29.86 0.0 0.05
06 13:35 S 12 G 18 10.00 Light Rain BKN100 66.9 63 87% 29.88 0.0
06 13:15 SW 14 G 18 10.00 Partly Cloudy SCT060 SCT100 67.6 62.1 82% 29.87 0.0
06 12:55 SW 10 10.00 Light Rain SCT018 SCT041 BKN120 67.1 62.4 85% 29.87 0.0
06 12:35 SW 8 G 16 10.00 Mostly Cloudy SCT018 SCT035 BKN120 67.1 62.4 85% 29.88 0.0
06 12:15 SW 10 G 16 10.00 Partly Cloudy SCT016 SCT039 SCT046 66.4 63 89% 29.88 0.0
06 11:55 S 14 G 24 10.00 Mostly Cloudy SCT016 SCT035 BKN100 65.3 62.2 90% 29.86 0.0 0.01
06 11:35 SW 10 G 21 10.00 Light Rain OVC110 64.4 61.9 92% 29.88 0.0 0.01
06 11:15 S 13 G 17 10.00 Light Rain OVC110 64.2 61.7 92% 29.88 0.0
06 10:55 S 9 10.00 Light Rain OVC110 64 61.2 90% 29.88 0.0 0.01 0.04
06 10:35 SW 8 10.00 Light Rain OVC110 64.6 61 88% 29.88 0.0
06 10:15 S 8 10.00 Light Rain SCT070 OVC100 64.4 60.6 88% 29.88 0.0
06 09:55 S 9 10.00 Overcast BKN070 OVC090 62.8 60.4 92% 29.88 0.0 0.03
06 09:35 SW 7 10.00 Light Rain OVC090 62.6 59.9 91% 29.88 0.0 0.02
06 09:15 SW 7 7.00 Light Rain SCT075 BKN090 OVC110 62.6 59.4 89% 29.89 0.0 0.01
06 08:55 SW 9 10.00 Rain BKN080 BKN085 OVC110 66.2 56.8 72% 29.88 0.0
06 08:35 SW 7 10.00 Mostly Cloudy BKN080 BKN120 66.4 56.5 71% 29.88 0.0
06 08:15 S 10 G 17 10.00 Partly Cloudy SCT080 66.4 56.7 71% 29.87 0.0
06 07:55 SW 10 10.00 Partly Cloudy SCT120 66.2 56.5 68.9 65.3 71% 29.87 0.0
06 07:35 SW 9 10.00 Mostly Cloudy SCT085 BKN120 65.7 56.3 72% 29.86 0.0
06 07:15 S 10 10.00 Mostly Cloudy SCT085 BKN110 65.5 56.3 72% 29.86 0.0
06 06:55 SW 10 10.00 Mostly Cloudy BKN120 65.5 56.3 72% 29.86 0.0
06 06:35 S 9 G 18 10.00 Overcast OVC110 65.7 56.3 72% 29.86 0.0
06 06:15 SW 13 G 16 10.00 Partly Cloudy SCT120 65.5 56.3 72% 29.86 0.0
06 05:55 S 13 G 18 10.00 Partly Cloudy SCT120 65.3 56.5 73% 29.86 0.0
06 05:35 S 9 10.00 Partly Cloudy SCT120 65.3 57.2 75% 29.87 0.0
Date Time (edt) Wind (mph) Vis. (mi.) Weather Sky Cond. Air Dwpt Max. Min. Relative Humidity Wind Chill (°F) Heat Index (°F) altimeter (in) sea level (mb) 1 hr 3 hr 6 hr
6 hour
Temperature (ºF) Pressure Precipitation (in)